Tiempo atmosférico en la estación meteorológica de La Oliva, Las Palmas (217 m.)



Fecha
DESCASC
Temp. máxima en grados centígrados (hora)
DESCASC
Temp. mínima en grados centígrados (hora)
DESCASC
Temp. media en grados centígrados
DESCASC
Racha de viento máxima en m/sg (hora)
DESCASC
Velocidad máxima media en intervalos de 10 minutos(hora)
DESCASC
Precipitaciones diarias en mm
DESCASC
Precipitaciones de 00:00 a 06:00 en mm
DESCASC
Precipitaciones de 06:00 a 12:00 en mm
DESCASC
Precipitaciones de 12:00 a 18:00 en mm
DESCASC
Precipitaciones de 18:00 a 24:00 en mm
DESCASC
18-08-2019 32.5 (14:40) 21.8 (23:40) 27.1 12.5 (13:10) 8.33 (12:50) 0 0 0 0 0
17-08-2019 33.9 (15:50) 22.9 (07:00) 28.4 11.94 (13:30) 7.5 (14:40) 0 0 0 0 0
16-08-2019 33.9 (15:10) 19.9 (02:10) 26.9 14.44 (13:50) 8.89 (12:10) 0 0 0 0 0
15-08-2019 27.8 (16:40) 19.7 (00:00) 23.8 8.89 (14:00) 4.72 (14:50) 0 0 0 0 0
14-08-2019 26.3 (16:20) 18.6 (00:00) 22.4 9.44 (19:30) 5 (01:10) 0 0 0 0 0
13-08-2019 24.9 (15:20) 18.6 (00:00) 21.8 12.5 (17:30) 6.39 (17:00) 0 0 0 0 0
12-08-2019 24.8 (14:10) 19 (00:00) 21.9 12.78 (18:50) 7.5 (18:20) 0 0 0 0 0
11-08-2019 26.6 (14:50) 19.7 (00:00) 23.2 11.11 (09:10) 6.39 (16:00) 0 0 0 0 0
10-08-2019 28.1 (14:10) 19.7 (00:00) 23.9 10.56 (21:50) 5.56 (23:00) 0 0 0 0 0
09-08-2019 26.4 (14:00) 19.2 (00:00) 22.8 8.33 (12:40) 5.83 (10:40) 0 0 0 0 0
08-08-2019 27.5 (16:30) 19 (00:00) 23.3 8.33 (13:00) 5.28 (13:20) 0 0 0 0 0
07-08-2019 25.8 (17:30) 18.7 (00:00) 22.3 8.89 (11:40) 4.72 (10:20) 0 0 0 0 0
06-08-2019 25.4 (15:10) 19.5 (00:00) 22.4 11.11 (12:40) 5.83 (16:10) 0 0 0 0 0
05-08-2019 25.5 (16:30) 19.7 (00:00) 22.6 11.39 (19:00) 6.11 (20:20) 0 0 0 0 0
04-08-2019 25.2 (15:50) 18.7 (00:00) 22 10.28 (17:00) 6.11 (16:40) 0 0 0 0 0
03-08-2019 24.5 (14:10) 19 (00:00) 21.8 11.39 (15:30) 5.83 (16:30) 0 0 0 0 0
02-08-2019 24.9 (16:10) 18.9 (00:00) 21.9 10.83 (15:40) 5.83 (18:20) 0 0 0 0 0
01-08-2019 24.7 (16:00) 18.7 (00:00) 21.7 10.83 (16:20) 5.56 (16:00) 0 0 0 0 0
31-07-2019 23.5 (14:30) 18.4 (00:00) 20.9 11.67 (16:40) 6.11 (17:50) 0 0 0 0 0
30-07-2019 23.5 (17:00) 19.1 (00:00) 21.3 14.44 (18:00) 7.22 (14:10) 0 0 0 0 0
29-07-2019 24.9 (15:10) 19.6 (00:00) 22.3 11.94 (15:40) 7.22 (14:50) 0 0 0 0 0
28-07-2019 24.4 (14:10) 19.6 (00:00) 22 12.22 (19:10) 6.11 (18:20) 0.2 0 0.2 0 0
27-07-2019 25.5 (14:10) 18.3 (00:00) 21.9 10.28 (18:40) 5.83 (18:30) 0 0 0 0 0
26-07-2019 26.3 (12:30) 19 (00:00) 22.6 11.11 (16:40) 7.5 (16:30) 0 0 0 0 0
25-07-2019 27 (16:10) 18.6 (00:00) 22.8 9.72 (11:10) 6.11 (11:10) 0 0 0 0 0
24-07-2019 25.2 (16:40) 18.8 (00:00) 22 10.56 (14:10) 5.56 (15:40) 0 0 0 0 0
23-07-2019 25.1 (15:10) 18.1 (00:00) 21.6 10.28 (18:00) 5.83 (04:30) 0 0 0 0 0
22-07-2019 24.6 (14:50) 18.7 (00:00) 21.7 10.28 (15:50) 5.56 (17:00) 0 0 0 0 0
21-07-2019 24.9 (15:10) 19.2 (00:00) 22.1 9.17 (17:00) 5.28 (15:40) 0 0 0 0 0

Gráficas

Temp. máximas Temp. mínimas Temp. medias Precipitaciones Rachas de viento máximas Velocidades máximas media en intervalos de 10 minutos

Datos horarios

Fecha y hora oficial Temperatura (ºC) Velocidad del viento (km/h) Dirección del viento Racha (km/h) Dirección de racha Precipitación (mm) Presión (hPa) Tendencia (hPa) Humedad (%)
2019-08-19 23:00:00 20.7 9 Norte 17 Norte 0 -- -- 81
2019-08-19 22:00:00 21.7 7 Nordeste 17 Norte 0 -- -- 77
2019-08-19 21:00:00 22.1 10 Norte 17 Norte 0 -- -- 77
2019-08-19 20:00:00 24.2 7 Norte 20 Nordeste 0 -- -- 70
2019-08-19 19:00:00 24.6 14 Nordeste 29 Nordeste 0 -- -- 67
2019-08-19 18:00:00 25.9 19 Nordeste 32 Nordeste 0 -- -- 55
2019-08-19 17:00:00 26.5 21 Nordeste 32 Nordeste 0 -- -- 55
2019-08-19 16:00:00 27.4 20 Nordeste 32 Este 0 -- -- 46
2019-08-19 15:00:00 28.1 15 Este 28 Nordeste 0 -- -- 51
2019-08-19 14:00:00 26.8 18 Este 28 Este 0 -- -- 57
2019-08-19 13:00:00 26.8 17 Nordeste 29 Nordeste 0 -- -- 55
2019-08-19 12:00:00 25.1 19 Nordeste 32 Nordeste 0 -- -- 62
2019-08-19 11:00:00 24.5 18 Este 36 Este 0 -- -- 61
2019-08-19 10:00:00 23.3 16 Este 28 Este 0 -- -- 67
2019-08-19 09:00:00 21.8 12 Este 24 Este 0 -- -- 71
2019-08-19 08:00:00 21 14 Este 23 Este 0 -- -- 66
2019-08-19 07:00:00 20.5 10 Este 20 Este 0 -- -- 69
2019-08-19 06:00:00 19.4 2 Este 10 Norte 0 -- -- 83
2019-08-19 05:00:00 20.1 3 Noroeste 11 Este 0 -- -- 83
2019-08-19 04:00:00 20.6 6 Este 25 Este 0 -- -- 76
2019-08-19 03:00:00 21.1 12 Este 20 Este 0 -- -- 77
2019-08-19 02:00:00 21.8 10 Este 29 Este 0 -- -- 71
2019-08-19 01:00:00 23.1 14 Este 27 Este 0 -- -- 61
2019-08-19 00:00:00 22.9 10 Este 14 Nordeste 0 -- -- 56
2019-08-18 23:00:00 22.8 4 Noroeste 12 Noroeste -- -- -- 71
2019-08-18 22:00:00 24.1 5 Noroeste 15 Este 0 -- -- 66
2019-08-18 21:00:00 25 6 Noroeste 15 Noroeste 0 -- -- 64
2019-08-18 20:00:00 29.1 8 Este 21 Nordeste 0 -- -- 38
2019-08-18 19:00:00 30.7 12 Este 24 Nordeste 0 -- -- 34
2019-08-18 18:00:00 30.9 14 Este 28 Nordeste 0 -- -- 35
2019-08-18 17:00:00 31.3 15 Nordeste 32 Nordeste 0 -- -- 38
2019-08-18 16:00:00 31.3 20 Este 35 Este 0 -- -- 40
2019-08-18 15:00:00 32.1 23 Este 44 Nordeste 0 -- -- 33
2019-08-18 14:00:00 32 26 Nordeste 45 Nordeste 0 -- -- 32
2019-08-18 13:00:00 31.8 27 Nordeste 44 Este 0 -- -- 30
2019-08-18 12:00:00 30.7 24 Nordeste 42 Nordeste 0 -- -- 34
2019-08-18 11:00:00 29.3 19 Este 34 Nordeste 0 -- -- 36
2019-08-18 10:00:00 28.2 13 Este 23 Este 0 -- -- 39
2019-08-18 09:00:00 25.8 5 Este 13 Este 0 -- -- 47
2019-08-18 08:00:00 23.2 4 Sudeste 22 Este 0 -- -- 56
2019-08-18 07:00:00 23.7 12 Este 26 Este 0 -- -- 52
2019-08-18 06:00:00 24.5 10 Este 23 Este 0 -- -- 46
2019-08-18 05:00:00 24.2 13 Este 35 Este 0 -- -- 49
2019-08-18 04:00:00 24.1 23 Nordeste 36 Nordeste 0 -- -- 48
2019-08-18 03:00:00 24.5 18 Este 41 Nordeste 0 -- -- 46
2019-08-18 02:00:00 25.3 21 Nordeste 38 Nordeste 0 -- -- 46
2019-08-18 01:00:00 25.9 18 Este 32 Nordeste 0 -- -- 45
2019-08-18 00:00:00 27.1 21 Este 40 Nordeste 0 -- -- 39
2019-08-17 23:00:00 26.2 14 Este 24 Este 0 -- -- 48
2019-08-17 22:00:00 24 5 Noroeste 10 Noroeste 0 -- -- 68
2019-08-17 21:00:00 27.5 7 Este 23 Este 0 -- -- 43
2019-08-17 20:00:00 29.6 13 Este 35 Este 0 -- -- 38
2019-08-17 19:00:00 31.5 17 Este 33 Nordeste 0 -- -- 34
2019-08-17 18:00:00 33.3 14 Nordeste 30 Este 0 -- -- 32
2019-08-17 17:00:00 33.5 15 Nordeste 32 Este 0 -- -- 32
2019-08-17 16:00:00 33.7 17 Nordeste 35 Nordeste 0 -- -- 34
2019-08-17 15:00:00 33.5 20 Nordeste 40 Nordeste 0 -- -- 33
2019-08-17 14:00:00 32.7 24 Nordeste 43 Este 0 -- -- 31
2019-08-17 13:00:00 31.5 21 Nordeste 38 Nordeste 0 -- -- 34
2019-08-17 12:00:00 29.9 19 Nordeste 43 Nordeste 0 -- -- 40
2019-08-17 11:00:00 29.8 24 Este 42 Este 0 -- -- 39
2019-08-17 10:00:00 28.5 17 Este 36 Nordeste 0 -- -- 41
2019-08-17 09:00:00 26.6 11 Este 26 Sudeste 0 -- -- 48
2019-08-17 08:00:00 25.5 14 Este 22 Este 0 -- -- 50
2019-08-17 07:00:00 22.9 0 Calma 12 Nordeste 0 -- -- 67
2019-08-17 06:00:00 25.2 8 Este 34 Nordeste 0 -- -- 48
2019-08-17 05:00:00 25.7 20 Nordeste 33 Este 0 -- -- 47
2019-08-17 04:00:00 25.4 18 Nordeste 32 Nordeste 0 -- -- 51
2019-08-17 03:00:00 26 20 Nordeste 30 Nordeste 0 -- -- 47
2019-08-17 02:00:00 25.5 13 Nordeste 28 Nordeste 0 -- -- 51
2019-08-17 01:00:00 25.7 15 Nordeste 30 Nordeste 0 -- -- 49
2019-08-17 00:00:00 25.6 13 Este 25 Nordeste 0 -- -- 50
2019-08-16 23:00:00 27.1 9 Este 27 Nordeste 0 -- -- 44
2019-08-16 22:00:00 27.6 12 Este 21 Este 0 -- -- 41
2019-08-16 21:00:00 24.9 4 Norte 21 Noroeste 0 -- -- 65
2019-08-16 20:00:00 28 8 Noroeste 26 Nordeste 0 -- -- 59
2019-08-16 19:00:00 31.8 15 Nordeste 31 Nordeste 0 -- -- 32
2019-08-16 18:00:00 32.9 15 Este 28 Este 0 -- -- 29
2019-08-16 17:00:00 32.6 18 Este 36 Este 0 -- -- 32
2019-08-16 16:00:00 32.8 22 Nordeste 39 Nordeste 0 -- -- 28
2019-08-16 15:00:00 33.3 25 Nordeste 41 Nordeste 0 -- -- 27
2019-08-16 14:00:00 31.8 29 Este 52 Nordeste 0 -- -- 30
2019-08-16 13:00:00 30.7 25 Nordeste 51 Nordeste 0 -- -- 35
2019-08-16 12:00:00 29.1 28 Nordeste 46 Nordeste 0 -- -- 38
2019-08-16 11:00:00 25.7 14 Nordeste 42 Este 0 -- -- 50
2019-08-16 10:00:00 24.8 9 Este 44 Este 0 -- -- 52
2019-08-16 09:00:00 23.2 17 Nordeste 34 Nordeste 0 -- -- 61
2019-08-16 08:00:00 23.1 19 Este 39 Nordeste 0 -- -- 60
2019-08-16 07:00:00 20.3 4 Sudoeste 17 Oeste 0 -- -- 91
2019-08-16 06:00:00 20.2 7 Noroeste 20 Noroeste 0 -- -- 92
2019-08-16 05:00:00 20.2 8 Norte 23 Noroeste 0 -- -- 91
2019-08-16 04:00:00 20.1 8 Noroeste 22 Noroeste 0 -- -- 91
2019-08-16 03:00:00 20.2 7 Noroeste 17 Noroeste 0 -- -- 91
2019-08-16 02:00:00 20 3 Sudeste 9 Nordeste 0 -- -- 87
2019-08-16 01:00:00 20.3 6 Nordeste 10 Norte 0 -- -- 88
2019-08-16 00:00:00 20.5 0 Calma 8 Norte 0 -- -- 86
2019-08-15 23:00:00 20.8 3 Noroeste 12 Norte 0 -- -- 84
2019-08-15 22:00:00 21 6 Norte 17 Norte 0 -- -- 85
2019-08-15 21:00:00 21.6 8 Norte 18 Norte 0 -- -- 83
2019-08-15 20:00:00 23 10 Norte 23 Norte 0 -- -- 77
2019-08-15 19:00:00 24.3 10 Norte 27 Noroeste 0 -- -- 72
2019-08-15 18:00:00 25.5 13 Norte 28 Nordeste 0 -- -- 67
2019-08-15 17:00:00 27.5 15 Norte 29 Norte 0 -- -- 61
2019-08-15 16:00:00 26.8 15 Norte 26 Norte 0 -- -- 62
2019-08-15 15:00:00 26.9 13 Norte 30 Norte 0 -- -- 60
2019-08-15 14:00:00 26.6 17 Noroeste 32 Noroeste 0 -- -- 61
2019-08-15 13:00:00 26.1 15 Norte 26 Norte 0 -- -- 61
2019-08-15 12:00:00 25.1 12 Norte 27 Nordeste 0 -- -- 64
2019-08-15 11:00:00 24.3 11 Norte 21 Nordeste 0 -- -- 66
2019-08-15 10:00:00 22.5 12 Norte 24 Norte 0 -- -- 75
2019-08-15 09:00:00 20.6 14 Norte 26 Norte 0 -- -- 86
2019-08-15 08:00:00 19.8 12 Norte 25 Norte 0 -- -- 89
2019-08-15 07:00:00 19.8 15 Norte 27 Norte 0 -- -- 89
2019-08-15 06:00:00 19.7 11 Norte 26 Noroeste 0 -- -- 89
2019-08-15 05:00:00 19.7 8 Norte 28 Norte 0 -- -- 88
2019-08-15 04:00:00 19.7 9 Norte 23 Norte 0 -- -- 88
2019-08-15 03:00:00 19.8 10 Norte 23 Norte 0 -- -- 88
2019-08-15 02:00:00 19.8 12 Noroeste 22 Norte 0 -- -- 88
2019-08-15 01:00:00 19.8 9 Norte 25 Norte 0 -- -- 86
2019-08-15 00:00:00 20 11 Norte 26 Noroeste 0 -- -- 86
2019-08-14 23:00:00 20.1 13 Norte 28 Norte 0 -- -- 85
2019-08-14 22:00:00 20.3 14 Norte 31 Norte 0 -- -- 83
2019-08-14 21:00:00 20.6 16 Norte 34 Norte 0 -- -- 83
2019-08-14 20:00:00 21.5 15 Noroeste 34 Noroeste 0 -- -- 80
2019-08-14 19:00:00 23.5 17 Noroeste 31 Noroeste 0 -- -- 72
2019-08-14 18:00:00 25.1 15 Norte 31 Noroeste 0 -- -- 65
2019-08-14 17:00:00 25.9 16 Norte 28 Norte 0 -- -- 61
2019-08-14 16:00:00 25.8 15 Norte 32 Nordeste 0 -- -- 61
2019-08-14 15:00:00 25.7 16 Norte 33 Norte 0 -- -- 61
2019-08-14 14:00:00 25.4 17 Norte 33 Noroeste 0 -- -- 61
2019-08-14 13:00:00 25.3 15 Norte 29 Norte 0 -- -- 62
2019-08-14 12:00:00 24.5 13 Norte 29 Norte 0 -- -- 64
2019-08-14 11:00:00 23.2 12 Norte 24 Norte 0.2 -- -- 69
2019-08-14 10:00:00 21.6 14 Norte 31 Norte 0 -- -- 76
2019-08-14 09:00:00 20 15 Norte 29 Norte 0 -- -- 84
2019-08-14 08:00:00 18.9 13 Norte 24 Norte 0 -- -- 88
2019-08-14 07:00:00 18.6 8 Norte 26 Norte 0 -- -- 88
2019-08-14 06:00:00 18.8 9 Norte 22 Noroeste 0 -- -- 87
2019-08-14 05:00:00 18.9 10 Norte 21 Norte 0 -- -- 87
2019-08-14 04:00:00 18.9 11 Norte 23 Norte 0 -- -- 86
2019-08-14 03:00:00 18.8 10 Norte 28 Norte 0 -- -- 86
2019-08-14 02:00:00 19 15 Norte 28 Norte 0 -- -- 84
2019-08-14 01:00:00 19.2 18 Norte 30 Norte 0 -- -- 84
2019-08-14 00:00:00 19.3 17 Norte 31 Noroeste 0 -- -- 83
2019-08-13 23:00:00 19.5 18 Norte 33 Norte 0 -- -- 81
2019-08-13 22:00:00 19.7 21 Norte 37 Norte 0 -- -- 80
2019-08-13 21:00:00 20.1 19 Norte 38 Norte 0 -- -- 78
2019-08-13 20:00:00 20.7 19 Norte 40 Norte 0 -- -- 75
2019-08-13 19:00:00 22.4 21 Norte 36 Norte 0 -- -- 66
2019-08-13 18:00:00 23.4 21 Norte 45 Noroeste 0 -- -- 64
2019-08-13 17:00:00 23.7 23 Norte 39 Norte 0 -- -- 60
2019-08-13 16:00:00 24.6 21 Norte 39 Norte 0 -- -- 58
2019-08-13 15:00:00 24.7 19 Norte 41 Noroeste 0 -- -- 59
2019-08-13 14:00:00 24.6 18 Norte 39 Noroeste 0 -- -- 58
2019-08-13 13:00:00 24.1 19 Norte 37 Norte 0 -- -- 61
2019-08-13 12:00:00 23.2 18 Norte 38 Norte 0 -- -- 64
2019-08-13 11:00:00 22.4 19 Norte 40 Norte 0 -- -- 68
2019-08-13 10:00:00 21.3 17 Norte 38 Norte 0 -- -- 73
2019-08-13 09:00:00 20.1 15 Norte 34 Norte 0 -- -- 77
2019-08-13 08:00:00 18.8 18 Norte 33 Norte 0 -- -- 83
2019-08-13 07:00:00 18.7 16 Norte 33 Norte 0 -- -- 84
2019-08-13 06:00:00 18.7 14 Norte 31 Norte 0 -- -- 83
2019-08-13 05:00:00 18.7 17 Norte 34 Norte 0 -- -- 82
2019-08-13 04:00:00 18.9 17 Norte 35 Nordeste 0 -- -- 83
2019-08-13 03:00:00 19 19 Norte 38 Norte 0 -- -- 84
2019-08-13 02:00:00 19.1 19 Norte 39 Norte 0 -- -- 82
2019-08-13 01:00:00 19.3 20 Norte 35 Norte 0 -- -- 84
2019-08-13 00:00:00 19.3 18 Norte 36 Norte 0 -- -- 83
2019-08-12 23:00:00 19.6 17 Norte 35 Norte 0 -- -- 82
2019-08-12 22:00:00 19.7 18 Norte 39 Norte 0 -- -- 81
2019-08-12 21:00:00 20 21 Norte 43 Norte 0 -- -- 80
2019-08-12 20:00:00 20.8 24 Norte 42 Norte 0 -- -- 76
2019-08-12 19:00:00 22.3 25 Norte 46 Norte 0 -- -- 69
2019-08-12 18:00:00 23.4 24 Norte 45 Norte 0 -- -- 64
2019-08-12 17:00:00 23.9 26 Norte 42 Norte 0 -- -- 61
2019-08-12 16:00:00 24.5 23 Norte 42 Norte 0 -- -- 60
2019-08-12 15:00:00 24.4 24 Norte 42 Norte 0 -- -- 60
2019-08-12 14:00:00 24.7 22 Norte 41 Norte 0 -- -- 59
2019-08-12 13:00:00 24 23 Norte 41 Norte 0 -- -- 61
2019-08-12 12:00:00 23.6 22 Norte 40 Norte 0 -- -- 64
2019-08-12 11:00:00 22.8 20 Norte 39 Norte 0 -- -- 66
2019-08-12 10:00:00 21.8 21 Norte 39 Norte 0 -- -- 73
2019-08-12 09:00:00 20.4 21 Norte 35 Norte 0 -- -- 80
2019-08-12 08:00:00 19.2 17 Norte 34 Norte 0 -- -- 85
2019-08-12 07:00:00 19.1 18 Norte 35 Norte 0 -- -- 85
2019-08-12 06:00:00 19.2 17 Norte 32 Norte 0 -- -- 85
2019-08-12 05:00:00 19.2 17 Norte 36 Norte 0 -- -- 86
2019-08-12 04:00:00 19.3 15 Norte 32 Norte 0 -- -- 85
2019-08-12 03:00:00 19.4 15 Norte -- -- -- -- -- 84
2019-08-12 02:00:00 19.6 18 Norte 30 Norte 0 -- -- 86
2019-08-12 01:00:00 19.6 14 Norte 33 Nordeste 0 -- -- 85
2019-08-12 00:00:00 19.7 15 Norte 33 Norte 0 -- -- 83
2019-08-11 23:00:00 20 14 Norte 27 Norte 0 -- -- 81
2019-08-11 22:00:00 20.2 13 Norte 31 Norte 0 -- -- 81
2019-08-11 21:00:00 20.6 16 Norte 33 Norte 0 -- -- 79
2019-08-11 20:00:00 22.1 19 Norte 33 Nordeste 0 -- -- 72
2019-08-11 19:00:00 23.5 19 Norte 37 Norte 0 -- -- 67
2019-08-11 18:00:00 24.5 21 Norte 38 Norte 0 -- -- 63
2019-08-11 17:00:00 25.2 20 Norte 36 Nordeste 0 -- -- 60
2019-08-11 16:00:00 25.7 23 Norte 40 Norte 0 -- -- 59
2019-08-11 15:00:00 26.3 20 Norte 37 Nordeste 0 -- -- 57
2019-08-11 14:00:00 26 18 Norte 33 Norte 0 -- -- 58
2019-08-11 13:00:00 25.3 19 Norte 34 Nordeste 0 -- -- 61
2019-08-11 12:00:00 24.5 17 Norte 31 Norte 0 -- -- 63
2019-08-11 11:00:00 23.7 15 Norte 35 Norte 0 -- -- 66
2019-08-11 10:00:00 21.4 14 Norte 40 Norte 0 -- -- 78
2019-08-11 09:00:00 20.7 20 Norte 38 Norte 0 -- -- 81
2019-08-11 08:00:00 20 18 Norte 34 Norte 0 -- -- 87
2019-08-11 07:00:00 20 18 Norte 31 Norte 0 -- -- 88
2019-08-11 06:00:00 20.2 15 Norte 29 Norte 0 -- -- 89
2019-08-11 05:00:00 20.2 14 Norte 26 Norte 0 -- -- 89
2019-08-11 04:00:00 20.2 13 Norte 26 Norte 0 -- -- 88
2019-08-11 03:00:00 20.4 12 Norte 23 Norte 0 -- -- 86
2019-08-11 02:00:00 21 8 Norte 17 Noroeste 0 -- -- 82
2019-08-11 01:00:00 21.7 12 Norte 27 Nordeste 0 -- -- 83
2019-08-11 00:00:00 22 17 Nordeste 31 Nordeste 0 -- -- 83
2019-08-10 23:00:00 22 20 Norte 34 Norte 0 -- -- 85
2019-08-10 22:00:00 22.1 15 Norte 38 Norte 0 -- -- 86
2019-08-10 21:00:00 22.2 13 Norte 32 Norte 0 -- -- 84
2019-08-10 20:00:00 23 15 Norte 36 Noroeste 0 -- -- 80
2019-08-10 19:00:00 25.1 18 Norte 37 Noroeste 0 -- -- 70
2019-08-10 18:00:00 26.9 14 Noroeste 29 Noroeste 0 -- -- 62
2019-08-10 17:00:00 27.6 14 Norte 27 Norte 0 -- -- 59
2019-08-10 16:00:00 27.5 15 Norte 29 Norte 0 -- -- 59
2019-08-10 15:00:00 27.7 15 Norte 30 Noroeste 0 -- -- 59
2019-08-10 14:00:00 27.7 14 Norte 33 Norte 0 -- -- 59
2019-08-10 13:00:00 27 15 Norte 28 Nordeste 0 -- -- 58
2019-08-10 12:00:00 25.6 16 Nordeste 30 Nordeste 0 -- -- 65
2019-08-10 11:00:00 24.8 16 Nordeste 30 Nordeste 0 -- -- 63
2019-08-10 10:00:00 23.6 14 Nordeste 25 Nordeste 0 -- -- 70
2019-08-10 09:00:00 21.3 11 Nordeste 18 Norte 0 -- -- 83
2019-08-10 08:00:00 19.9 9 Norte 25 Norte 0 -- -- 90
2019-08-10 07:00:00 19.8 10 Norte 21 Norte 0 -- -- 90
2019-08-10 06:00:00 19.7 9 Norte 23 Norte 0 -- -- 89
2019-08-10 05:00:00 19.8 13 Norte 25 Norte 0 -- -- 91
2019-08-10 04:00:00 19.7 12 Norte 21 Norte 0 -- -- 91
2019-08-10 03:00:00 19.7 9 Norte 17 Norte 0 -- -- 90
2019-08-10 02:00:00 19.9 5 Norte 18 Norte 0 -- -- 89
2019-08-10 01:00:00 20 4 Noroeste 8 Norte 0 -- -- 87
2019-08-10 00:00:00 20.5 3 Noroeste 8 Noroeste 0 -- -- 86
2019-08-09 23:00:00 20.6 5 Nordeste 17 Norte 0 -- -- 85
2019-08-09 22:00:00 20.9 7 Norte 15 Norte 0 -- -- 84
2019-08-09 21:00:00 21.7 10 Norte 23 Noroeste 0 -- -- 81
2019-08-09 20:00:00 23.2 11 Norte 22 Norte 0 -- -- 73
2019-08-09 19:00:00 25.7 11 Nordeste 19 Nordeste 0 -- -- 64
2019-08-09 18:00:00 25.6 9 Nordeste 21 Nordeste 0 -- -- 63
2019-08-09 17:00:00 25.2 14 Nordeste 29 Nordeste 0 -- -- 64
2019-08-09 16:00:00 25.4 18 Nordeste 28 Este 0 -- -- 62
2019-08-09 15:00:00 25.5 18 Este 30 Este 0 -- -- 61
2019-08-09 14:00:00 26.4 16 Este 27 Nordeste 0 -- -- 59
2019-08-09 13:00:00 25 15 Nordeste 30 Nordeste 0 -- -- 63
2019-08-09 12:00:00 23.9 17 Nordeste 30 Nordeste 0 -- -- 68
2019-08-09 11:00:00 22.7 18 Nordeste 30 Nordeste 0 -- -- 72
2019-08-09 10:00:00 21.9 16 Este 26 Nordeste 0 -- -- 76
2019-08-09 09:00:00 20 15 Este 25 Nordeste 0 -- -- 82
2019-08-09 08:00:00 19.3 15 Este 26 Nordeste 0 -- -- 86
2019-08-09 07:00:00 19.3 12 Nordeste 21 Nordeste 0 -- -- 85
2019-08-09 06:00:00 19.4 9 Nordeste 15 Este 0 -- -- 86
2019-08-09 05:00:00 19.5 5 Nordeste 13 Este 0 -- -- 87
2019-08-09 04:00:00 19.7 7 Nordeste 16 Este 0 -- -- 86
2019-08-09 03:00:00 20 11 Nordeste 18 Este 0 -- -- 84
2019-08-09 02:00:00 20 12 Este 20 Nordeste 0 -- -- 85
2019-08-09 01:00:00 20.3 12 Este 23 Este 0 -- -- 84
2019-08-09 00:00:00 20.5 15 Este 23 Este 0 -- -- 84
2019-08-08 23:00:00 20.5 17 Este 26 Este 0 -- -- 84
2019-08-08 22:00:00 21.1 13 Este 21 Este 0 -- -- 81
2019-08-08 21:00:00 22.2 9 Nordeste 16 Nordeste 0 -- -- 76
2019-08-08 20:00:00 24 11 Nordeste 18 Nordeste 0 -- -- 68
2019-08-08 19:00:00 25.4 10 Nordeste 22 Nordeste 0 -- -- 62
2019-08-08 18:00:00 26.3 15 Nordeste 24 Norte 0 -- -- 59
2019-08-08 17:00:00 26.9 15 Nordeste 22 Nordeste 0 -- -- 57
2019-08-08 16:00:00 26.6 11 Este 28 Este 0 -- -- 58
2019-08-08 15:00:00 25.8 17 Este 26 Este 0 -- -- 60
2019-08-08 14:00:00 24.9 16 Este 30 Este 0 -- -- 63
2019-08-08 13:00:00 25.2 18 Este 30 Este 0 -- -- 63
2019-08-08 12:00:00 25.3 14 Este 24 Este 0 -- -- 61
2019-08-08 11:00:00 23.6 5 Noroeste 15 Sur 0 -- -- 66
2019-08-08 10:00:00 21.7 8 Noroeste 17 Noroeste 0 -- -- 75
2019-08-08 09:00:00 20.3 7 Nordeste 12 Nordeste 0 -- -- 82
2019-08-08 08:00:00 19.1 2 Noroeste 9 Nordeste 0 -- -- 87
2019-08-08 07:00:00 19.4 6 Nordeste 13 Nordeste 0 -- -- 85
2019-08-08 06:00:00 19 7 Este 12 Este 0 -- -- 86
2019-08-08 05:00:00 19.3 0 Calma 5 Norte 0 -- -- 86
2019-08-08 04:00:00 19.4 5 Noroeste 16 Nordeste 0 -- -- 87
2019-08-08 03:00:00 19.5 9 Este 14 Este 0 -- -- 87
2019-08-08 02:00:00 19.8 6 Este 12 Este 0 -- -- 84
2019-08-08 01:00:00 20 4 Nordeste 6 Norte 0 -- -- 82
2019-08-08 00:00:00 20.5 5 Norte 17 Nordeste 0 -- -- 82
2019-08-07 23:00:00 20.7 11 Nordeste 17 Nordeste 0 -- -- 80
2019-08-07 22:00:00 21 12 Nordeste 20 Nordeste 0 -- -- 81
2019-08-07 21:00:00 21.4 15 Nordeste 21 Nordeste 0 -- -- 79
2019-08-07 20:00:00 22.9 11 Nordeste 20 Este 0 -- -- 71
2019-08-07 19:00:00 24.3 10 Norte 24 Norte 0 -- -- 66
2019-08-07 18:00:00 25.4 13 Nordeste 23 Norte 0 -- -- 61
2019-08-07 17:00:00 25.2 13 Nordeste 30 Nordeste 0 -- -- 60
2019-08-07 16:00:00 24.5 17 Nordeste 28 Nordeste 0 -- -- 61
2019-08-07 15:00:00 24.5 17 Nordeste 31 Nordeste 0 -- -- 62
2019-08-07 14:00:00 25.4 13 Nordeste 30 Nordeste 0 -- -- 60
2019-08-07 13:00:00 24.7 15 Norte 28 Nordeste 0 -- -- 60
2019-08-07 12:00:00 23.8 14 Norte 32 Noroeste 0 -- -- 63
2019-08-07 11:00:00 22.5 15 Norte 29 Norte 0 -- -- 67
2019-08-07 10:00:00 21.4 13 Norte 27 Noroeste 0 -- -- 72
2019-08-07 09:00:00 20.2 8 Norte 16 Noroeste 0 -- -- 79
2019-08-07 08:00:00 18.9 7 Norte 17 Norte 0 -- -- 83
2019-08-07 07:00:00 18.7 9 Norte 19 Norte 0 -- -- 84
2019-08-07 06:00:00 18.9 11 Norte 21 Nordeste 0 -- -- 84
2019-08-07 05:00:00 19.3 10 Norte 21 Noroeste 0 -- -- 83
2019-08-07 04:00:00 19.4 8 Norte 21 Nordeste 0 -- -- 82
2019-08-07 03:00:00 19.4 9 Norte 15 Norte 0 -- -- 83
2019-08-07 02:00:00 19.4 8 Norte 18 Norte 0 -- -- 80
2019-08-07 01:00:00 19.2 5 Norte 12 Norte 0 -- -- 82
2019-08-07 00:00:00 19.5 8 Norte 15 Norte 0 -- -- 82
2019-08-06 23:00:00 19.9 9 Nordeste 24 Norte 0 -- -- 82
2019-08-06 22:00:00 19.8 14 Norte 27 Norte 0 -- -- 83
2019-08-06 21:00:00 20.3 14 Norte 32 Norte 0 -- -- 80
2019-08-06 20:00:00 21.5 18 Norte 33 Noroeste 0 -- -- 73
2019-08-06 19:00:00 22.5 18 Norte 35 Norte 0 -- -- 69
2019-08-06 18:00:00 23.9 18 Norte 35 Noroeste 0 -- -- 64
2019-08-06 17:00:00 24.8 17 Noroeste 40 Noroeste 0 -- -- 61
2019-08-06 16:00:00 24.4 20 Norte 39 Noroeste 0 -- -- 60
2019-08-06 15:00:00 25 18 Norte 36 Noroeste 0 -- -- 61
2019-08-06 14:00:00 24.7 19 Noroeste 38 Norte 0 -- -- 61
2019-08-06 13:00:00 24.2 19 Noroeste 40 Noroeste 0 -- -- 63
2019-08-06 12:00:00 23.5 19 Norte 37 Noroeste 0 -- -- 64
2019-08-06 11:00:00 22.7 17 Norte 37 Noroeste 0 -- -- 68
2019-08-06 10:00:00 21.2 14 Norte 33 Norte 0 -- -- 75
2019-08-06 09:00:00 20.2 17 Norte 31 Noroeste 0 -- -- 76
2019-08-06 08:00:00 19.9 16 Norte 32 Norte 0 -- -- 78
2019-08-06 07:00:00 19.9 16 Norte 32 Norte 0 -- -- 78
2019-08-06 06:00:00 19.7 16 Norte 33 Norte 0 -- -- 78
2019-08-06 05:00:00 19.8 17 Norte 35 Norte 0 -- -- 80
2019-08-06 04:00:00 20 14 Norte 30 Norte 0 -- -- 78
2019-08-06 03:00:00 20 11 Norte 26 Norte 0 -- -- 80
2019-08-06 02:00:00 19.9 15 Norte 30 Norte 0 -- -- 84
2019-08-06 01:00:00 19.9 15 Norte 32 Norte 0 -- -- 84
2019-08-06 00:00:00 19.7 19 Norte 31 Norte 0 -- -- 84
2019-08-05 23:00:00 20 15 Norte 32 Norte 0 -- -- 84
2019-08-05 22:00:00 20.1 16 Norte 35 Norte 0 -- -- 83
2019-08-05 21:00:00 20.3 21 Norte 38 Norte 0 -- -- 80
2019-08-05 20:00:00 21.3 21 Norte 39 Norte 0 -- -- 75
2019-08-05 19:00:00 23 19 Norte 41 Norte 0 -- -- 68
2019-08-05 18:00:00 24.2 19 Norte 39 Noroeste 0 -- -- 64
2019-08-05 17:00:00 24.8 20 Norte 40 Noroeste 0 -- -- 62
2019-08-05 16:00:00 25 17 Norte 39 Noroeste 0 -- -- 61
2019-08-05 15:00:00 25.1 17 Norte 33 Norte 0 -- -- 61
2019-08-05 14:00:00 25 18 Norte 35 Norte 0 -- -- 61
2019-08-05 13:00:00 24.5 18 Norte 32 Norte 0 -- -- 62
2019-08-05 12:00:00 23.8 13 Norte 30 Noroeste 0 -- -- 63
2019-08-05 11:00:00 23.3 15 Norte 27 Norte 0 -- -- 65
2019-08-05 10:00:00 21.5 15 Nordeste 27 Norte 0 -- -- 71
2019-08-05 09:00:00 20.4 13 Norte 28 Norte 0 -- -- 73
2019-08-05 08:00:00 19.9 13 Norte 22 Nordeste 0 -- -- 75
2019-08-05 07:00:00 20 13 Norte 27 Norte 0 -- -- 77
2019-08-05 06:00:00 19.9 15 Norte 28 Norte 0 -- -- 75
2019-08-05 05:00:00 20 10 Norte 23 Norte 0 -- -- 77
2019-08-05 04:00:00 20 13 Norte 28 Nordeste 0 -- -- 78
2019-08-05 03:00:00 20.1 11 Norte 26 Norte 0 -- -- 77
2019-08-05 02:00:00 20.3 9 Norte 26 Norte 0 -- -- 80
2019-08-05 01:00:00 20.4 10 Norte 25 Norte 0 -- -- 81
2019-08-05 00:00:00 20.4 13 Norte 27 Norte 0 -- -- 82
2019-08-04 23:00:00 20.5 14 Norte 25 Norte 0 -- -- 83
2019-08-04 22:00:00 20.8 13 Norte 30 Norte 0 -- -- 80
2019-08-04 21:00:00 21 17 Norte 33 Norte 0 -- -- 79
2019-08-04 20:00:00 22.3 18 Norte 36 Norte 0 -- -- 72
2019-08-04 19:00:00 23.3 18 Norte 32 Norte 0 -- -- 63
2019-08-04 18:00:00 24.3 15 Norte 35 Norte 0 -- -- 61
2019-08-04 17:00:00 25.1 19 Norte 37 Norte 0 -- -- 54
2019-08-04 16:00:00 25.1 17 Norte 35 Norte 0 -- -- 54
2019-08-04 15:00:00 25 17 Norte 32 Norte 0 -- -- 54
2019-08-04 14:00:00 24.4 18 Norte 33 Noroeste 0 -- -- 56
2019-08-04 13:00:00 24 15 Norte 31 Norte 0 -- -- 57
2019-08-04 12:00:00 23.2 18 Norte 32 Norte 0 -- -- 59
2019-08-04 11:00:00 22.4 14 Norte 28 Norte 0 -- -- 69
2019-08-04 10:00:00 21.4 15 Norte 31 Norte 0 -- -- 67
2019-08-04 09:00:00 20.1 10 Norte 30 Norte 0 -- -- 71
2019-08-04 08:00:00 19.6 12 Norte 25 Norte 0 -- -- 72
2019-08-04 07:00:00 19.5 8 Norte 19 Nordeste 0 -- -- 77
2019-08-04 06:00:00 19.2 11 Norte 23 Norte 0 -- -- 76
2019-08-04 05:00:00 18.9 9 Norte 19 Norte 0 -- -- 78
2019-08-04 04:00:00 18.8 8 Norte 18 Norte 0 -- -- 80
2019-08-04 03:00:00 18.7 11 Norte 22 Norte 0 -- -- 80
2019-08-04 02:00:00 18.9 9 Norte 22 Norte 0 -- -- 80
2019-08-04 01:00:00 19.2 8 Norte 19 Norte 0 -- -- 79
2019-08-04 00:00:00 19.3 13 Norte 25 Norte 0 -- -- 77
2019-08-03 23:00:00 19.3 13 Norte 24 Norte 0 -- -- 76
2019-08-03 22:00:00 19.5 11 Norte 27 Noroeste 0 -- -- 76
2019-08-03 21:00:00 20 15 Norte 31 Noroeste 0 -- -- 74
2019-08-03 20:00:00 21.5 15 Norte 33 Noroeste 0 -- -- 68
2019-08-03 19:00:00 22.7 18 Norte 36 Noroeste 0 -- -- 62
2019-08-03 18:00:00 23.7 18 Noroeste 41 Norte 0 -- -- 58
2019-08-03 17:00:00 23.7 18 Norte 37 Noroeste 0 -- -- 56
2019-08-03 16:00:00 24 20 Norte 41 Noroeste 0 -- -- 57
2019-08-03 15:00:00 24.2 20 Noroeste 35 Norte 0 -- -- 54
2019-08-03 14:00:00 24.4 18 Noroeste 35 Noroeste 0 -- -- 58
2019-08-03 13:00:00 23.9 15 Norte 33 Noroeste 0 -- -- 57
2019-08-03 12:00:00 23.1 16 Noroeste 31 Noroeste 0 -- -- 60
2019-08-03 11:00:00 21.9 16 Norte 28 Norte 0 -- -- 64
2019-08-03 10:00:00 20.2 15 Norte 29 Noroeste 0 -- -- 70
2019-08-03 09:00:00 19.3 14 Norte 30 Noroeste 0 -- -- 73
2019-08-03 08:00:00 19 12 Norte 25 Noroeste 0 -- -- 77
2019-08-03 07:00:00 19 13 Norte 26 Norte 0 -- -- 76
2019-08-03 06:00:00 19.1 8 Norte 23 Norte 0 -- -- 76
2019-08-03 05:00:00 19.2 9 Norte 19 Norte 0 -- -- 76
2019-08-03 04:00:00 19.3 9 Norte 18 Norte 0 -- -- 76
2019-08-03 03:00:00 19.3 6 Norte 17 Norte 0 -- -- 75
2019-08-03 02:00:00 19.3 7 Norte 18 Nordeste 0 -- -- 76
2019-08-03 01:00:00 19.4 10 Nordeste 19 Norte 0 -- -- 78
2019-08-03 00:00:00 19.2 12 Norte 25 Norte 0 -- -- 79
2019-08-02 23:00:00 19.3 13 Norte 29 Norte 0 -- -- 79
2019-08-02 22:00:00 19.5 15 Norte 35 Norte 0 -- -- 77
2019-08-02 21:00:00 20 17 Norte 36 Noroeste 0 -- -- 75
2019-08-02 20:00:00 21.1 20 Norte 35 Norte 0 -- -- 70
2019-08-02 19:00:00 22.8 18 Norte 36 Norte 0 -- -- 64
2019-08-02 18:00:00 23.5 19 Norte 39 Noroeste 0 -- -- 61
2019-08-02 17:00:00 24.4 19 Noroeste 35 Noroeste 0 -- -- 57
2019-08-02 16:00:00 24.5 21 Noroeste 39 Noroeste 0 -- -- 54
2019-08-02 15:00:00 24.6 18 Noroeste 35 Norte 0 -- -- 55
2019-08-02 14:00:00 24.3 17 Noroeste 34 Noroeste 0 -- -- 56
2019-08-02 13:00:00 23.7 15 Norte 30 Noroeste 0 -- -- 57
2019-08-02 12:00:00 22.9 14 Norte 29 Norte 0 -- -- 58
2019-08-02 11:00:00 22.1 13 Norte 29 Norte 0 -- -- 62
2019-08-02 10:00:00 20.7 16 Norte 26 Norte 0 -- -- 65
2019-08-02 09:00:00 19.7 13 Norte 24 Norte 0 -- -- 70
2019-08-02 08:00:00 19 10 Norte 24 Norte 0 -- -- 72
2019-08-02 07:00:00 19.2 11 Norte 23 Norte 0 -- -- 72
2019-08-02 06:00:00 19.2 10 Norte 23 Norte 0 -- -- 72
2019-08-02 05:00:00 19.2 9 Norte 18 Norte 0 -- -- 71
2019-08-02 04:00:00 19.3 10 Norte 19 Norte 0 -- -- 72
2019-08-02 03:00:00 19.4 9 Norte 20 Norte 0 -- -- 74
2019-08-02 02:00:00 19.5 12 Norte 21 Nordeste 0 -- -- 77
2019-08-02 01:00:00 19.1 12 Norte 23 Norte 0 -- -- 78
2019-08-02 00:00:00 19.3 12 Norte 27 Norte 0 -- -- 78
2019-08-01 23:00:00 19.5 14 Norte 30 Norte 0 -- -- 78
2019-08-01 22:00:00 19.7 14 Norte 30 Norte 0 -- -- 77
2019-08-01 21:00:00 20 16 Norte 34 Norte 0 -- -- 77
2019-08-01 20:00:00 21.4 16 Noroeste 37 Norte 0 -- -- 70
2019-08-01 19:00:00 22.7 17 Norte 34 Norte 0 -- -- 63
2019-08-01 18:00:00 23.5 17 Noroeste 37 Noroeste 0 -- -- 60
2019-08-01 17:00:00 24.1 18 Noroeste 39 Noroeste 0 -- -- 59
2019-08-01 16:00:00 24.7 20 Noroeste 38 Noroeste 0 -- -- 55
2019-08-01 15:00:00 24.5 15 Noroeste 36 Noroeste 0 -- -- 56
2019-08-01 14:00:00 24.1 15 Norte 32 Norte 0 -- -- 56
2019-08-01 13:00:00 23.7 14 Noroeste 31 Noroeste 0 -- -- 56
2019-08-01 12:00:00 22.3 13 Norte 30 Noroeste 0 -- -- 63
2019-08-01 11:00:00 21.4 14 Norte 28 Noroeste 0 -- -- 63
2019-08-01 10:00:00 20 15 Norte 30 Norte 0 -- -- 68
2019-08-01 09:00:00 20.1 18 Norte 30 Norte 0 -- -- 69
2019-08-01 08:00:00 19 12 Norte 25 Norte 0 -- -- 74
2019-08-01 07:00:00 18.8 14 Norte 30 Norte 0 -- -- 73
2019-08-01 06:00:00 19.1 11 Norte 26 Norte 0 -- -- 71
2019-08-01 05:00:00 19.1 13 Norte 28 Noroeste 0 -- -- 70
2019-08-01 04:00:00 19 13 Norte 26 Norte 0 -- -- 70
2019-08-01 03:00:00 19.2 15 Norte 29 Noroeste 0 -- -- 72
2019-08-01 02:00:00 19 14 Norte 27 Norte 0 -- -- 72
2019-08-01 01:00:00 19.2 12 Norte 27 Norte 0 -- -- 71
2019-08-01 00:00:00 19.4 13 Norte 29 Noroeste 0 -- -- 70
2019-07-31 23:00:00 19.5 13 Norte 35 Noroeste 0 -- -- 71
2019-07-31 22:00:00 19.7 11 Norte 32 Norte 0 -- -- 69
2019-07-31 21:00:00 20 13 Noroeste 33 Norte 0 -- -- 70
2019-07-31 20:00:00 20.4 16 Norte 38 Norte 0 -- -- 68
2019-07-31 19:00:00 21.7 19 Noroeste 35 Noroeste 0 -- -- 62
2019-07-31 18:00:00 22.5 18 Norte 41 Noroeste 0 -- -- 61
2019-07-31 17:00:00 23.1 21 Norte 42 Norte 0 -- -- 56
2019-07-31 16:00:00 23 22 Norte 42 Noroeste 0 -- -- 59
2019-07-31 15:00:00 23.2 19 Norte 42 Noroeste 0 -- -- 56
2019-07-31 14:00:00 22.8 19 Norte 42 Noroeste 0 -- -- 59
2019-07-31 13:00:00 22.5 21 Norte 40 Norte 0 -- -- 58
2019-07-31 12:00:00 22 18 Norte 40 Noroeste 0 -- -- 60
2019-07-31 11:00:00 21.4 21 Norte 39 Norte 0 -- -- 63
2019-07-31 10:00:00 20.6 17 Norte 36 Noroeste 0 -- -- 67
2019-07-31 09:00:00 19.3 18 Norte 34 Norte 0 -- -- 71
2019-07-31 08:00:00 18.7 16 Norte 35 Norte 0 -- -- 71
2019-07-31 07:00:00 18.5 16 Norte 31 Norte 0 -- -- 74
2019-07-31 06:00:00 18.4 14 Norte 35 Norte 0 -- -- 75
2019-07-31 05:00:00 18.5 16 Norte 38 Norte 0 -- -- 73
2019-07-31 04:00:00 18.6 15 Norte 39 Norte 0 -- -- 74
2019-07-31 03:00:00 18.7 18 Norte 38 Norte 0 -- -- 75
2019-07-31 02:00:00 18.9 16 Norte 39 Norte 0 -- -- 75
2019-07-31 01:00:00 19.2 19 Norte 35 Norte 0 -- -- 75
2019-07-31 00:00:00 19.3 17 Norte 38 Noroeste 0 -- -- 73
2019-07-30 23:00:00 19.4 15 Noroeste 37 Noroeste 0 -- -- 72
2019-07-30 22:00:00 19.4 18 Noroeste 40 Norte 0 -- -- 74
2019-07-30 21:00:00 19.8 18 Norte 37 Noroeste 0 -- -- 74
2019-07-30 20:00:00 20.5 21 Norte 44 Norte 0 -- -- 69
2019-07-30 19:00:00 21.1 22 Norte 45 Norte 0 -- -- 67
2019-07-30 18:00:00 22.8 23 Noroeste 52 Noroeste 0 -- -- 61
2019-07-30 17:00:00 23.5 21 Norte 46 Noroeste 0 -- -- 59
2019-07-30 16:00:00 22.8 23 Norte 44 Noroeste 0 -- -- 62
2019-07-30 15:00:00 23.3 24 Norte 48 Norte 0 -- -- 56
2019-07-30 14:00:00 22.6 23 Norte 48 Norte 0 -- -- 63
2019-07-30 13:00:00 21.7 21 Norte 41 Noroeste 0 -- -- 69
2019-07-30 12:00:00 20.5 17 Norte 39 Norte 0 -- -- 74
2019-07-30 11:00:00 20 18 Norte 38 Noroeste 0 -- -- 78
2019-07-30 10:00:00 19.5 19 Norte 39 Norte 0 -- -- 78
2019-07-30 09:00:00 19.7 19 Norte 35 Norte 0 -- -- 77
2019-07-30 08:00:00 19.2 17 Norte 37 Noroeste 0 -- -- 83
2019-07-30 07:00:00 19.4 17 Norte 35 Norte 0 -- -- 78
2019-07-30 06:00:00 19.3 19 Norte 39 Norte 0 -- -- 81
2019-07-30 05:00:00 19.4 17 Norte 34 Norte 0 -- -- 84
2019-07-30 04:00:00 19.7 19 Norte 38 Norte 0 -- -- 83
2019-07-30 03:00:00 20.1 19 Norte 42 Norte 0 -- -- 82
2019-07-30 02:00:00 20.3 22 Norte 43 Norte 0 -- -- 83
2019-07-30 01:00:00 20.5 17 Norte 41 Norte 0 -- -- 84
2019-07-30 00:00:00 20.5 17 Norte 37 Norte 0 -- -- 83
2019-07-29 23:00:00 20.5 21 Norte 39 Norte 0 -- -- 83
2019-07-29 22:00:00 20.6 18 Norte 40 Norte 0 -- -- 82
2019-07-29 21:00:00 20.5 20 Norte 41 Norte 0 -- -- 80
2019-07-29 20:00:00 21 23 Norte 41 Norte 0 -- -- 75
2019-07-29 19:00:00 22.5 21 Norte 42 Noroeste 0 -- -- 69
2019-07-29 18:00:00 23.6 22 Norte 40 Noroeste 0 -- -- 61
2019-07-29 17:00:00 24.1 21 Norte 42 Norte 0 -- -- 58
2019-07-29 16:00:00 24.4 21 Norte 43 Noroeste 0 -- -- 57
2019-07-29 15:00:00 24.3 22 Norte 42 Noroeste 0 -- -- 55
2019-07-29 14:00:00 24.5 20 Norte 38 Norte 0 -- -- 56
2019-07-29 13:00:00 23.7 18 Norte 38 Noroeste 0 -- -- 59
2019-07-29 12:00:00 22.7 21 Norte 38 Noroeste 0 -- -- 58
2019-07-29 11:00:00 22.1 19 Norte 37 Norte 0 -- -- 62
2019-07-29 10:00:00 20.3 15 Norte 32 Noroeste 0 -- -- 72
2019-07-29 09:00:00 20.2 17 Norte 32 Norte 0 -- -- 68
2019-07-29 08:00:00 19.7 17 Norte 30 Nordeste 0 -- -- 68
2019-07-29 07:00:00 19.6 15 Norte 29 Norte 0 -- -- 69
2019-07-29 06:00:00 19.7 12 Norte 27 Norte 0 -- -- 76
2019-07-29 05:00:00 19.7 11 Norte 25 Norte 0 -- -- 76
2019-07-29 04:00:00 19.8 11 Noroeste 28 Norte 0 -- -- 75
2019-07-29 03:00:00 19.7 14 Norte 29 Nordeste 0 -- -- 71
2019-07-29 02:00:00 19.8 15 Norte 31 Nordeste 0 -- -- 72
2019-07-29 01:00:00 19.8 12 Norte 30 Norte 0 -- -- 76
2019-07-29 00:00:00 20.2 17 Norte 30 Norte 0 -- -- 77
2019-07-28 23:00:00 20.4 15 Norte 35 Norte 0 -- -- 72
2019-07-28 22:00:00 20.4 15 Norte 32 Norte 0 -- -- 72
2019-07-28 21:00:00 20.5 17 Norte 34 Norte 0 -- -- 72
2019-07-28 20:00:00 21.4 19 Norte 44 Norte 0 -- -- 69
2019-07-28 19:00:00 22.8 19 Norte 43 Norte 0 -- -- 64
2019-07-28 18:00:00 24.1 17 Norte 36 Noroeste 0 -- -- 62
2019-07-28 17:00:00 22.9 18 Norte 37 Norte 0 -- -- 67
2019-07-28 16:00:00 22.6 18 Noroeste 34 Norte 0 -- -- 74
2019-07-28 15:00:00 23.7 17 Noroeste 41 Noroeste 0 -- -- 70
2019-07-28 14:00:00 23.8 17 Noroeste 37 Noroeste 0 -- -- 68
2019-07-28 13:00:00 22.9 16 Noroeste 34 Noroeste 0 -- -- 73
2019-07-28 12:00:00 22 15 Norte 30 Norte 0 -- -- 78
2019-07-28 11:00:00 21 13 Norte 25 Norte 0.2 -- -- 87
2019-07-28 10:00:00 20.5 12 Norte 24 Norte 0 -- -- 89
2019-07-28 09:00:00 19.8 11 Norte 29 Norte 0 -- -- 90
2019-07-28 08:00:00 19.6 15 Norte 28 Norte 0 -- -- 90
2019-07-28 07:00:00 19.9 11 Norte 26 Norte 0 -- -- 87
2019-07-28 06:00:00 20.1 13 Norte 31 Norte 0 -- -- 86
2019-07-28 05:00:00 20.1 15 Norte 31 Norte 0 -- -- 85
2019-07-28 04:00:00 20 12 Norte 27 Nordeste 0 -- -- 85
2019-07-28 03:00:00 20 13 Norte 29 Nordeste 0 -- -- 84
2019-07-28 02:00:00 20 12 Norte 28 Nordeste 0 -- -- 83
2019-07-28 01:00:00 20.1 15 Norte 34 Norte 0 -- -- 81
2019-07-28 00:00:00 19.9 15 Norte 35 Norte 0 -- -- 82
2019-07-27 23:00:00 19.7 14 Norte 32 Norte 0 -- -- 79
2019-07-27 22:00:00 19.6 14 Norte 29 Norte 0 -- -- 78
2019-07-26 11:00:00 23.3 10 Nordeste 27 Este 0 -- -- 68
2019-07-26 10:00:00 22 8 Nordeste 18 Nordeste 0 -- -- 75
2019-07-26 09:00:00 20.5 13 Nordeste 21 Nordeste 0 -- -- 85
2019-07-26 08:00:00 19.1 4 Este 12 Norte 0 -- -- 88
2019-07-26 07:00:00 19 5 Nordeste 15 Nordeste 0 -- -- 87
2019-07-26 06:00:00 19.1 4 Noroeste 20 Norte 0 -- -- 88
2019-07-26 05:00:00 19.2 6 Noroeste 19 Noroeste 0 -- -- 87
2019-07-26 04:00:00 19.3 5 Noroeste 17 Noroeste 0 -- -- 89
2019-07-26 03:00:00 19.3 4 Sudoeste 10 Noroeste 0 -- -- 86
2019-07-26 02:00:00 19.6 4 Noroeste 13 Norte 0 -- -- 84
2019-07-26 01:00:00 19.9 5 Este 12 Norte 0 -- -- 78
2019-07-26 00:00:00 19.9 9 Norte 22 Norte 0 -- -- 84
2019-07-25 23:00:00 20 14 Norte 28 Norte 0 -- -- 85
2019-07-25 22:00:00 20.3 11 Norte 24 Noroeste 0 -- -- 85
2019-07-25 21:00:00 21.2 12 Norte 24 Norte 0 -- -- 79
2019-07-25 20:00:00 22.5 14 Norte 27 Norte 0 -- -- 74
2019-07-25 19:00:00 24.6 13 Norte 27 Noroeste 0 -- -- 64
2019-07-25 18:00:00 25.4 14 Norte 28 Noroeste 0 -- -- 62
2019-07-25 17:00:00 26.2 14 Norte 27 Noroeste 0 -- -- 60
2019-07-25 16:00:00 26.8 15 Noroeste 29 Norte 0 -- -- 57
2019-07-25 15:00:00 26.3 17 Norte 31 Noroeste 0 -- -- 58
2019-07-25 14:00:00 26.7 13 Noroeste 29 Noroeste 0 -- -- 57
2019-07-25 13:00:00 25.8 13 Norte 23 Noroeste 0 -- -- 58
2019-07-25 12:00:00 24.4 11 Norte 35 Este 0 -- -- 62
2019-07-25 11:00:00 23.4 19 Este 32 Este 0 -- -- 67
2019-07-25 10:00:00 22 9 Norte 18 Noroeste 0 -- -- 74
2019-07-25 09:00:00 20.1 6 Noroeste 24 Noroeste 0 -- -- 85
2019-07-25 08:00:00 18.8 6 Norte 22 Norte 0 -- -- 91
2019-07-25 07:00:00 18.6 9 Norte 20 Noroeste 0 -- -- 91
2019-07-25 06:00:00 18.6 4 Noroeste 17 Noroeste 0 -- -- 90
2019-07-25 05:00:00 18.7 4 Norte 14 Nordeste 0 -- -- 90
2019-07-25 04:00:00 18.7 5 Norte 15 Norte 0 -- -- 89
2019-07-25 03:00:00 18.9 7 Norte 15 Norte 0 -- -- 89
2019-07-25 02:00:00 19 0 Calma 11 Norte 0 -- -- 87
2019-07-25 01:00:00 19.3 8 Norte 21 Norte 0 -- -- 88
2019-07-25 00:00:00 19.6 11 Norte 27 Norte 0 -- -- 86
2019-07-24 23:00:00 19.7 12 Norte 25 Norte 0 -- -- 85
2019-07-24 22:00:00 20 11 Norte 23 Norte 0 -- -- 83
2019-07-24 21:00:00 20.6 11 Norte 25 Norte 0 -- -- 82
2019-07-24 20:00:00 22.5 12 Norte 23 Norte 0 -- -- 74
2019-07-24 19:00:00 23.6 12 Norte 28 Norte 0 -- -- 70
2019-07-24 18:00:00 24.4 14 Nordeste 27 Nordeste 0 -- -- 67
2019-07-24 17:00:00 25.1 14 Norte 31 Noroeste 0 -- -- 64
2019-07-24 16:00:00 24.5 18 Norte 35 Noroeste 0 -- -- 64
2019-07-24 15:00:00 25.1 17 Noroeste 38 Norte 0 -- -- 62
2019-07-24 14:00:00 24.8 18 Noroeste 34 Noroeste 0 -- -- 63
2019-07-24 13:00:00 24.6 14 Noroeste 29 Noroeste 0 -- -- 63
2019-07-24 12:00:00 23.7 15 Noroeste 30 Noroeste 0 -- -- 65
2019-07-24 11:00:00 22.9 11 Norte 26 Norte 0 -- -- 66
2019-07-24 10:00:00 21.4 9 Norte 19 Norte 0 -- -- 71
2019-07-24 09:00:00 19.3 9 Norte 21 Nordeste 0 -- -- 80
2019-07-24 08:00:00 18.9 8 Norte 17 Norte 0 -- -- 84
2019-07-24 07:00:00 18.9 9 Norte 18 Norte 0 -- -- 87
2019-07-24 06:00:00 19 10 Norte 18 Norte 0 -- -- 87
2019-07-24 05:00:00 19.2 9 Norte 15 Norte 0 -- -- 87
2019-07-24 04:00:00 19 8 Norte 18 Norte 0 -- -- 85
2019-07-24 03:00:00 18.9 10 Norte 23 Norte 0 -- -- 87
2019-07-24 02:00:00 18.9 10 Norte 25 Norte 0 -- -- 86
2019-07-24 01:00:00 18.9 14 Norte 30 Norte 0 -- -- 85
2019-07-24 00:00:00 19 18 Norte 31 Norte 0 -- -- 82
2019-07-23 23:00:00 19.4 13 Norte 29 Noroeste 0 -- -- 81
2019-07-23 22:00:00 19.3 11 Norte 30 Norte 0 -- -- 81
2019-07-23 21:00:00 19.8 15 Norte 30 Norte 0 -- -- 78
2019-07-23 20:00:00 20.6 17 Norte 32 Noroeste 0 -- -- 75
2019-07-23 19:00:00 22 17 Noroeste 37 Noroeste 0 -- -- 68
2019-07-23 18:00:00 23.1 20 Noroeste 37 Noroeste 0 -- -- 63
2019-07-23 17:00:00 23.8 21 Noroeste 36 Noroeste 0 -- -- 63
2019-07-23 16:00:00 24.4 18 Norte 33 Norte 0 -- -- 60
2019-07-23 15:00:00 24.7 15 Norte 28 Noroeste 0 -- -- 59
2019-07-23 14:00:00 24.7 13 Norte 33 Nordeste 0 -- -- 58
2019-07-23 13:00:00 24.3 16 Norte 30 Noroeste 0 -- -- 59
2019-07-23 12:00:00 22.9 17 Nordeste 28 Norte 0 -- -- 63
2019-07-23 11:00:00 22.1 14 Norte 31 Noroeste 0 -- -- 66
2019-07-23 10:00:00 20.9 17 Norte 31 Norte 0 -- -- 70
2019-07-23 09:00:00 19.3 19 Norte 36 Noroeste 0 -- -- 78
2019-07-23 08:00:00 18.4 15 Norte 32 Norte 0 -- -- 83
2019-07-23 07:00:00 18.1 16 Norte 31 Norte 0 -- -- 83
2019-07-23 06:00:00 18.4 13 Norte 29 Norte 0 -- -- 83
2019-07-23 05:00:00 18.4 18 Norte 35 Norte 0 -- -- 82
2019-07-23 04:00:00 18.6 17 Norte 36 Norte 0 -- -- 82
2019-07-23 03:00:00 18.7 16 Norte 32 Norte 0 -- -- 81
2019-07-23 02:00:00 18.8 15 Norte 31 Norte 0 -- -- 81
2019-07-23 01:00:00 18.9 15 Norte 33 Norte 0 -- -- 82
2019-07-23 00:00:00 19 17 Norte 33 Norte 0 -- -- 81
2019-07-22 23:00:00 19.2 15 Norte 30 Norte 0 -- -- 80
2019-07-22 22:00:00 19.2 11 Norte 28 Noroeste 0 -- -- 80
2019-07-22 21:00:00 19.7 15 Norte 31 Norte 0 -- -- 78
2019-07-22 20:00:00 21.5 15 Norte 32 Norte 0 -- -- 70
2019-07-22 19:00:00 22.8 17 Norte 33 Noroeste 0 -- -- 65
2019-07-22 18:00:00 23.3 19 Norte 35 Noroeste 0 -- -- 63
2019-07-22 17:00:00 24.1 20 Noroeste 36 Noroeste 0 -- -- 61
2019-07-22 16:00:00 24.3 19 Noroeste 37 Norte 0 -- -- 61
2019-07-22 15:00:00 24.4 19 Noroeste 36 Noroeste 0 -- -- 60
2019-07-22 14:00:00 24.3 17 Noroeste 36 Noroeste 0 -- -- 60
2019-07-22 13:00:00 23.7 14 Norte 29 Norte 0 -- -- 63
2019-07-22 12:00:00 22.6 14 Norte 31 Norte 0 -- -- 66
2019-07-22 11:00:00 21.6 14 Norte 28 Noroeste 0 -- -- 70
2019-07-22 10:00:00 20.8 15 Norte 27 Norte 0 -- -- 73
2019-07-22 09:00:00 19.4 13 Norte 24 Norte 0 -- -- 80
2019-07-22 08:00:00 18.9 9 Norte 24 Norte 0 -- -- 82
2019-07-22 07:00:00 18.7 9 Norte 26 Norte 0 -- -- 82
2019-07-22 06:00:00 19 12 Norte 22 Norte 0 -- -- 82
2019-07-22 05:00:00 19 11 Norte 23 Norte 0 -- -- 81
2019-07-22 04:00:00 19.2 12 Norte 22 Norte 0 -- -- 79
2019-07-22 03:00:00 19.3 11 Nordeste 20 Norte 0 -- -- 79
2019-07-22 02:00:00 19.3 10 Norte 24 Norte 0 -- -- 79
2019-07-22 01:00:00 19.5 9 Nordeste 23 Norte 0 -- -- 81
2019-07-22 00:00:00 19.3 12 Norte 24 Norte 0 -- -- 82
2019-07-21 23:00:00 19.3 14 Norte 27 Norte 0 -- -- 81
2019-07-21 22:00:00 19.6 14 Norte 32 Norte 0 -- -- 82
2019-07-21 21:00:00 20.3 14 Norte 31 Noroeste 0 -- -- 77
2019-07-21 20:00:00 21.7 16 Norte 32 Norte 0 -- -- 70
2019-07-21 19:00:00 23.2 16 Norte 30 Norte 0 -- -- 64
2019-07-21 18:00:00 24.3 15 Norte 31 Nordeste 0 -- -- 63
2019-07-21 17:00:00 24.5 17 Norte 33 Norte 0 -- -- 62
2019-07-21 16:00:00 24.4 18 Nordeste 32 Nordeste 0 -- -- 63
2019-07-21 15:00:00 24.7 15 Nordeste 32 Nordeste 0 -- -- 60
2019-07-21 14:00:00 24.3 15 Nordeste 30 Norte 0 -- -- 62
2019-07-21 13:00:00 24.4 15 Nordeste 31 Este 0 -- -- 62
2019-07-21 12:00:00 23.6 13 Norte 28 Nordeste 0 -- -- 62
2019-07-21 11:00:00 22.3 15 Norte 27 Nordeste 0 -- -- 67
2019-07-21 10:00:00 20.9 10 Norte 18 Norte 0 -- -- 72
2019-07-21 09:00:00 20.1 10 Norte 21 Nordeste 0 -- -- 76
2019-07-21 08:00:00 19.5 13 Nordeste 19 Nordeste 0 -- -- 79
2019-07-21 07:00:00 19.6 11 Norte 20 Nordeste 0 -- -- 80
2019-07-21 06:00:00 19.6 13 Norte 21 Norte 0 -- -- 80
2019-07-21 05:00:00 19.7 13 Nordeste 22 Norte 0 -- -- 79
2019-07-21 04:00:00 19.9 12 Nordeste 21 Nordeste 0 -- -- 80
2019-07-21 03:00:00 20 8 Nordeste 22 Nordeste 0 -- -- 77
2019-07-21 02:00:00 20.1 11 Nordeste 26 Norte 0 -- -- 78
2019-07-21 01:00:00 20.2 14 Nordeste 26 Nordeste 0 -- -- 75
2019-07-21 00:00:00 20.2 15 Nordeste 26 Nordeste 0 -- -- 76